createdAt,value
2017-12-21T00:01:04.935Z,19.75
2017-12-21T00:03:33.106Z,20.67
2017-12-21T00:06:01.328Z,21.15
2017-12-21T00:08:29.502Z,19.85
2017-12-21T00:10:57.677Z,22.05
2017-12-21T00:13:25.850Z,22.20
2017-12-21T00:15:54.065Z,20.88
2017-12-21T00:18:22.243Z,21.05
2017-12-21T00:20:50.424Z,20.90
2017-12-21T00:23:18.603Z,22.87
2017-12-21T00:25:46.780Z,21.90
2017-12-21T00:28:14.953Z,23.52
2017-12-21T00:30:43.130Z,20.40
2017-12-21T00:33:11.312Z,20.52
2017-12-21T00:35:39.478Z,20.40
2017-12-21T00:38:07.699Z,21.00
2017-12-21T00:40:35.877Z,21.25
2017-12-21T00:43:04.833Z,21.37
2017-12-21T00:45:33.022Z,22.20
2017-12-21T00:48:01.194Z,19.80
2017-12-21T00:50:29.367Z,20.33
2017-12-21T00:52:57.613Z,22.75
2017-12-21T00:55:25.788Z,27.60
2017-12-21T00:57:53.964Z,24.15
2017-12-21T01:00:22.144Z,23.73
2017-12-21T01:02:50.318Z,22.15
2017-12-21T01:05:18.519Z,22.48
2017-12-21T01:07:48.215Z,22.08
2017-12-21T01:10:16.393Z,20.15
2017-12-21T01:12:44.563Z,20.20
2017-12-21T01:15:12.744Z,18.98
2017-12-21T01:17:40.923Z,21.05
2017-12-21T01:20:09.094Z,19.20
2017-12-21T01:22:37.285Z,25.40
2017-12-21T01:25:05.465Z,22.75
2017-12-21T01:27:33.642Z,22.10
2017-12-21T01:30:01.832Z,21.25
2017-12-21T01:32:30.818Z,24.90
2017-12-21T01:34:59.758Z,22.85
2017-12-21T01:37:27.939Z,22.87
2017-12-21T01:39:56.108Z,19.77
2017-12-21T01:42:24.339Z,19.83
2017-12-21T01:44:53.277Z,22.00
2017-12-21T01:47:21.454Z,19.98
2017-12-21T01:49:49.634Z,20.33
2017-12-21T01:52:17.812Z,19.95
2017-12-21T01:54:46.007Z,21.45
2017-12-21T01:57:14.187Z,20.70
2017-12-21T01:59:42.392Z,19.15
2017-12-21T02:02:11.363Z,19.50
2017-12-21T02:04:39.542Z,18.62
2017-12-21T02:07:07.715Z,19.87
2017-12-21T02:09:35.902Z,20.12
2017-12-21T02:12:04.834Z,18.30
2017-12-21T02:14:33.078Z,17.35
2017-12-21T02:17:02.031Z,17.62
2017-12-21T02:19:30.202Z,18.08
2017-12-21T02:21:58.395Z,19.73
2017-12-21T02:24:26.579Z,19.02
2017-12-21T02:26:54.781Z,18.58
2017-12-21T02:29:22.954Z,20.30
2017-12-21T02:31:51.126Z,19.70
2017-12-21T02:34:19.303Z,20.12
2017-12-21T02:36:47.497Z,20.67
2017-12-21T02:39:15.678Z,20.08
2017-12-21T02:41:43.859Z,20.12
2017-12-21T02:44:12.033Z,19.42
2017-12-21T02:46:40.251Z,17.08
2017-12-21T02:49:08.438Z,18.23
2017-12-21T02:51:37.386Z,16.35
2017-12-21T02:54:06.325Z,17.83
2017-12-21T02:56:35.283Z,17.90
2017-12-21T02:59:03.464Z,20.08
2017-12-21T03:01:31.641Z,16.52
2017-12-21T03:03:59.810Z,16.12
2017-12-21T03:06:27.999Z,16.52
2017-12-21T03:08:56.215Z,16.58
2017-12-21T03:11:24.400Z,16.20
2017-12-21T03:13:52.625Z,17.75
2017-12-21T03:16:20.808Z,17.30
2017-12-21T03:18:49.760Z,17.83
2017-12-21T03:21:17.936Z,17.90
2017-12-21T03:23:46.113Z,16.85
2017-12-21T03:26:14.296Z,18.75
2017-12-21T03:28:42.474Z,17.50
2017-12-21T03:31:10.695Z,17.95
2017-12-21T03:33:38.864Z,18.25
2017-12-21T03:36:07.793Z,17.27
2017-12-21T03:38:36.040Z,16.73
2017-12-21T03:41:04.215Z,17.40
2017-12-21T03:43:32.423Z,16.08
2017-12-21T03:46:00.604Z,16.12
2017-12-21T03:48:28.780Z,15.32
2017-12-21T03:50:56.970Z,14.93
2017-12-21T03:53:25.138Z,16.02
2017-12-21T03:55:53.309Z,15.13
2017-12-21T03:58:21.524Z,15.70
2017-12-21T04:00:50.485Z,15.52
2017-12-21T04:03:18.681Z,15.95
2017-12-21T04:05:47.674Z,14.77
2017-12-21T04:08:15.893Z,15.63
2017-12-21T04:10:44.059Z,15.93
2017-12-21T04:13:12.223Z,15.23
2017-12-21T04:15:40.434Z,15.98
2017-12-21T04:18:08.613Z,15.05
2017-12-21T04:20:36.785Z,15.20
2017-12-21T04:23:04.954Z,16.60
2017-12-21T04:25:33.154Z,16.30
2017-12-21T04:28:01.335Z,14.90
2017-12-21T04:30:29.510Z,15.45
2017-12-21T04:32:57.687Z,16.15
2017-12-21T04:35:25.919Z,14.50
2017-12-21T04:37:54.093Z,13.20
2017-12-21T04:40:22.302Z,15.38
2017-12-21T04:42:50.478Z,13.23
2017-12-21T04:45:18.657Z,12.77
2017-12-21T04:47:46.841Z,14.43
2017-12-21T04:50:15.055Z,13.88
2017-12-21T04:52:43.226Z,12.95
2017-12-21T04:55:11.396Z,14.20
2017-12-21T04:57:39.561Z,13.75
2017-12-21T05:00:08.546Z,12.48
2017-12-21T05:02:37.525Z,12.73
2017-12-21T05:05:05.699Z,13.13
2017-12-21T05:07:33.874Z,13.93
2017-12-21T05:10:02.050Z,14.18
2017-12-21T05:12:30.233Z,13.68
2017-12-21T05:14:59.178Z,13.60
2017-12-21T05:17:27.446Z,14.63
2017-12-21T05:19:55.623Z,14.23
2017-12-21T05:22:23.814Z,14.68
2017-12-21T05:24:52.010Z,16.45
2017-12-21T05:27:20.190Z,15.45
2017-12-21T05:29:48.364Z,15.52
2017-12-21T05:32:16.545Z,16.00
2017-12-21T05:34:44.715Z,16.48
2017-12-21T05:37:12.898Z,17.48
2017-12-21T05:39:41.845Z,16.10
2017-12-21T05:42:10.036Z,15.45
2017-12-21T05:44:38.262Z,14.43
2017-12-21T05:47:06.441Z,15.80
2017-12-21T05:49:34.627Z,17.25
2017-12-21T05:52:02.855Z,15.05
2017-12-21T05:54:31.037Z,14.60
2017-12-21T05:56:59.271Z,14.87
2017-12-21T05:59:27.471Z,14.93
2017-12-21T06:01:55.642Z,15.85
2017-12-21T06:04:23.861Z,14.40
2017-12-21T06:06:52.070Z,17.23
2017-12-21T06:09:20.218Z,13.68
2017-12-21T06:11:48.392Z,13.10
2017-12-21T06:14:16.581Z,14.48
2017-12-21T06:16:44.753Z,14.93
2017-12-21T06:19:12.914Z,14.80
2017-12-21T06:21:41.135Z,14.45
2017-12-21T06:24:09.335Z,19.25
2017-12-21T06:26:37.520Z,16.80
2017-12-21T06:29:06.514Z,17.20
2017-12-21T06:31:35.473Z,15.32
2017-12-21T06:34:03.725Z,16.87
2017-12-21T06:36:31.978Z,14.73
2017-12-21T06:39:00.218Z,15.02
2017-12-21T06:41:28.399Z,14.73
2017-12-21T06:43:56.581Z,14.95
2017-12-21T06:46:25.538Z,13.55
2017-12-21T06:48:53.762Z,15.50
2017-12-21T06:51:22.738Z,14.25
2017-12-21T06:53:51.714Z,15.18
2017-12-21T06:56:20.837Z,15.10
2017-12-21T06:58:49.837Z,14.85
2017-12-21T07:01:18.872Z,15.80
2017-12-21T07:03:47.087Z,15.48
2017-12-21T07:06:15.273Z,15.93
2017-12-21T07:08:44.215Z,18.15
2017-12-21T07:11:12.422Z,19.23
2017-12-21T07:13:40.607Z,16.62
2017-12-21T07:16:09.548Z,19.20
2017-12-21T07:18:37.747Z,20.52
2017-12-21T07:21:05.944Z,21.60
2017-12-21T07:23:34.118Z,21.25
2017-12-21T07:26:02.299Z,21.98
2017-12-21T07:28:31.316Z,22.20
2017-12-21T07:30:59.538Z,21.25
2017-12-21T07:33:27.725Z,22.02
2017-12-21T07:35:55.906Z,21.12
2017-12-21T07:38:24.123Z,18.37
2017-12-21T07:40:52.302Z,19.27
2017-12-21T07:43:20.951Z,20.33
2017-12-21T07:45:49.142Z,22.80
2017-12-21T07:48:18.135Z,24.25
2017-12-21T07:50:47.103Z,26.52
2017-12-21T07:53:15.298Z,26.12
2017-12-21T07:55:44.238Z,23.85
2017-12-21T07:58:12.414Z,24.37
2017-12-21T08:00:40.619Z,22.90
2017-12-21T08:03:08.801Z,21.62
2017-12-21T08:05:36.977Z,20.30
2017-12-21T08:08:05.206Z,22.58
2017-12-21T08:10:33.382Z,23.25
2017-12-21T08:13:01.574Z,24.52
2017-12-21T08:15:29.756Z,22.08
2017-12-21T08:17:57.933Z,23.48
2017-12-21T08:20:26.166Z,25.05
2017-12-21T08:22:54.370Z,23.80
2017-12-21T08:25:22.544Z,23.90
2017-12-21T08:27:50.802Z,23.00
2017-12-21T08:30:19.041Z,21.25
2017-12-21T08:32:48.029Z,21.73
2017-12-21T08:35:17.002Z,21.75
2017-12-21T08:37:45.218Z,24.30
2017-12-21T08:40:13.449Z,22.70
2017-12-21T08:42:41.662Z,24.87
2017-12-21T08:45:09.849Z,21.63
2017-12-21T08:47:38.136Z,23.95
2017-12-21T08:50:07.065Z,23.27
2017-12-21T08:52:35.265Z,25.33
2017-12-21T08:55:04.220Z,24.63
2017-12-21T08:57:32.424Z,23.83
2017-12-21T09:00:00.612Z,25.60
2017-12-21T09:02:29.599Z,25.55
2017-12-21T09:04:58.557Z,24.50
2017-12-21T09:07:26.741Z,23.40
2017-12-21T09:09:54.948Z,23.73
2017-12-21T09:12:23.182Z,25.42
2017-12-21T09:14:51.417Z,25.42
2017-12-21T09:17:19.613Z,24.37
2017-12-21T09:19:47.848Z,30.65
2017-12-21T09:22:16.791Z,27.05
2017-12-21T09:24:44.964Z,26.02
2017-12-21T09:27:13.197Z,24.15
2017-12-21T09:29:41.355Z,23.40
2017-12-21T09:32:09.531Z,22.50
2017-12-21T09:34:37.749Z,23.07
2017-12-21T09:37:05.939Z,19.40
2017-12-21T09:39:34.114Z,21.27
2017-12-21T09:42:02.286Z,19.03
2017-12-21T09:44:30.466Z,19.97
2017-12-21T09:46:58.643Z,16.90
2017-12-21T09:49:26.844Z,20.07
2017-12-21T09:51:55.049Z,17.67
2017-12-21T09:54:23.981Z,16.27
2017-12-21T09:56:52.167Z,17.00
2017-12-21T09:59:20.341Z,20.33
2017-12-21T10:01:48.546Z,18.37
2017-12-21T10:04:16.880Z,14.97
2017-12-21T10:06:45.051Z,16.40
2017-12-21T10:09:13.220Z,23.33
2017-12-21T10:11:41.446Z,17.40
2017-12-21T10:14:09.615Z,14.53
2017-12-21T10:16:37.800Z,19.07
2017-12-21T10:19:05.970Z,20.60
2017-12-21T10:21:34.205Z,16.30
2017-12-21T10:24:02.390Z,18.00
2017-12-21T10:26:30.597Z,19.30
2017-12-21T10:28:58.804Z,16.37
2017-12-21T10:31:26.966Z,14.60
2017-12-21T10:33:55.896Z,14.70
2017-12-21T10:36:24.055Z,14.97
2017-12-21T10:38:52.217Z,16.17
2017-12-21T10:41:21.147Z,16.93
2017-12-21T10:43:49.414Z,19.50
2017-12-21T10:46:17.609Z,17.73
2017-12-21T10:48:45.779Z,17.67
2017-12-21T10:51:13.958Z,18.20
2017-12-21T10:53:42.136Z,17.50
2017-12-21T10:56:10.308Z,17.30
2017-12-21T10:58:38.488Z,19.10
2017-12-21T11:01:06.647Z,17.67
2017-12-21T11:03:34.836Z,17.40
2017-12-21T11:06:02.994Z,17.40
2017-12-21T11:08:31.152Z,17.90
2017-12-21T11:10:59.374Z,16.77
2017-12-21T11:13:27.535Z,17.60
2017-12-21T11:15:55.694Z,32.47
2017-12-21T11:18:23.866Z,19.23
2017-12-21T11:20:52.054Z,17.40
2017-12-21T11:23:20.305Z,19.90
2017-12-21T11:25:48.470Z,17.37
2017-12-21T11:28:16.734Z,17.57
2017-12-21T11:30:44.895Z,17.57
2017-12-21T11:33:13.822Z,18.37
2017-12-21T11:35:41.978Z,18.40
2017-12-21T11:38:10.146Z,19.57
2017-12-21T11:40:39.072Z,19.03
2017-12-21T11:43:07.234Z,19.33
2017-12-21T11:45:35.392Z,19.40
2017-12-21T11:48:03.574Z,21.87
2017-12-21T11:50:31.792Z,19.10
2017-12-21T11:52:59.965Z,20.57
2017-12-21T11:55:28.123Z,22.30
2017-12-21T11:57:56.312Z,20.93
2017-12-21T12:00:24.470Z,20.40
2017-12-21T12:02:52.641Z,23.43
2017-12-21T12:05:20.880Z,25.30
2017-12-21T12:07:49.820Z,25.13
2017-12-21T12:10:17.994Z,23.77
2017-12-21T12:12:46.163Z,26.93
2017-12-21T12:15:14.346Z,28.23
2017-12-21T12:17:42.515Z,28.10
2017-12-21T12:20:10.710Z,29.43
2017-12-21T12:22:38.880Z,28.47
2017-12-21T12:25:07.058Z,33.37
2017-12-21T12:27:35.229Z,34.23
2017-12-21T12:30:03.390Z,35.00
2017-12-21T12:32:31.596Z,33.00
2017-12-21T12:34:59.768Z,30.80
2017-12-21T12:37:27.959Z,30.03
2017-12-21T12:39:56.897Z,30.50
2017-12-21T12:42:25.057Z,27.60
2017-12-21T12:44:53.216Z,29.50
2017-12-21T12:47:21.387Z,31.67
2017-12-21T12:49:50.315Z,33.40
2017-12-21T12:52:18.528Z,32.70
2017-12-21T12:54:46.698Z,34.20
2017-12-21T12:57:14.855Z,31.87
2017-12-21T12:59:43.067Z,31.83
2017-12-21T13:02:11.995Z,31.17
2017-12-21T13:04:40.171Z,31.00
2017-12-21T13:07:08.361Z,31.30
2017-12-21T13:09:36.532Z,30.20
2017-12-21T13:12:04.715Z,30.73
2017-12-21T13:14:32.889Z,32.80
2017-12-21T13:17:01.079Z,30.37
2017-12-21T13:19:29.246Z,31.87
2017-12-21T13:21:57.425Z,30.73
2017-12-21T13:24:25.642Z,31.43
2017-12-21T13:26:54.604Z,31.33
2017-12-21T13:29:22.771Z,33.40
2017-12-21T13:31:50.946Z,31.13
2017-12-21T13:34:19.115Z,32.80
2017-12-21T13:36:47.279Z,31.17
2017-12-21T13:39:15.495Z,30.53
2017-12-21T13:41:44.442Z,29.13
2017-12-21T13:44:12.619Z,39.23
2017-12-21T13:46:40.860Z,37.30
2017-12-21T13:49:09.039Z,28.57
2017-12-21T13:51:37.220Z,27.23
2017-12-21T13:54:05.447Z,28.93
2017-12-21T13:56:33.633Z,27.70
2017-12-21T13:59:02.581Z,28.57
2017-12-21T14:01:30.826Z,29.67
2017-12-21T14:03:59.019Z,27.13
2017-12-21T14:06:27.188Z,28.00
2017-12-21T14:08:55.392Z,26.63
2017-12-21T14:11:23.583Z,27.53
2017-12-21T14:13:51.760Z,26.40
2017-12-21T14:16:19.931Z,27.43
2017-12-21T14:18:48.172Z,26.90
2017-12-21T14:21:16.362Z,26.57
2017-12-21T14:23:44.547Z,24.57
2017-12-21T14:26:12.766Z,27.10
2017-12-21T14:28:41.706Z,23.33
2017-12-21T14:31:09.886Z,22.20
2017-12-21T14:33:38.055Z,22.53
2017-12-21T14:36:06.244Z,21.73
2017-12-21T14:38:34.458Z,22.60
2017-12-21T14:41:03.389Z,21.70
2017-12-21T14:43:31.578Z,20.97
2017-12-21T14:45:59.787Z,21.10
2017-12-21T14:48:28.728Z,20.83
2017-12-21T14:50:56.927Z,20.03
2017-12-21T14:53:25.109Z,20.70
2017-12-21T14:55:53.306Z,22.57
2017-12-21T14:58:22.267Z,22.83
2017-12-21T15:00:50.436Z,22.90
2017-12-21T15:03:18.598Z,23.93
2017-12-21T15:05:46.765Z,23.77
2017-12-21T15:08:14.945Z,24.67
2017-12-21T15:10:43.121Z,21.57
2017-12-21T15:13:11.337Z,23.40
2017-12-21T15:15:39.510Z,23.17
2017-12-21T15:18:07.782Z,22.80
2017-12-21T15:20:35.969Z,21.90
2017-12-21T15:23:04.914Z,24.33
2017-12-21T15:25:33.101Z,22.07
2017-12-21T15:28:01.285Z,22.97
2017-12-21T15:30:29.457Z,24.63
2017-12-21T15:32:57.642Z,22.53
2017-12-21T15:35:25.818Z,22.97
2017-12-21T15:37:54.058Z,23.00
2017-12-21T15:40:22.254Z,23.90
2017-12-21T15:42:50.439Z,22.33
2017-12-21T15:45:18.624Z,21.63
2017-12-21T15:47:46.826Z,22.83
2017-12-21T15:50:15.003Z,23.93
2017-12-21T15:52:43.223Z,24.47
2017-12-21T15:55:11.431Z,25.27
2017-12-21T15:57:39.616Z,28.00
2017-12-21T16:00:08.582Z,30.50
2017-12-21T16:02:36.794Z,25.87
2017-12-21T16:05:05.765Z,27.13
2017-12-21T16:07:34.709Z,29.03
2017-12-21T16:10:02.913Z,29.80
2017-12-21T16:12:31.077Z,32.00
2017-12-21T16:14:59.285Z,30.30
2017-12-21T16:17:27.506Z,26.60
2017-12-21T16:19:55.684Z,27.87
2017-12-21T16:22:23.931Z,25.60
2017-12-21T16:24:52.136Z,26.80
2017-12-21T16:27:20.319Z,26.43
2017-12-21T16:29:48.507Z,27.90
2017-12-21T16:32:16.676Z,24.67
2017-12-21T16:34:44.875Z,24.03
2017-12-21T16:37:13.046Z,26.00
2017-12-21T16:39:41.226Z,24.70
2017-12-21T16:42:09.403Z,28.53
2017-12-21T16:44:37.603Z,25.97
2017-12-21T16:47:06.580Z,24.27
2017-12-21T16:49:35.581Z,25.80
2017-12-21T16:52:04.524Z,25.10
2017-12-21T16:54:32.697Z,25.00
2017-12-21T16:57:00.877Z,26.60
2017-12-21T16:59:29.112Z,24.90
2017-12-21T17:01:57.344Z,26.10
2017-12-21T17:04:25.549Z,25.30
2017-12-21T17:06:53.760Z,24.17
2017-12-21T17:09:21.930Z,22.70
2017-12-21T17:11:50.109Z,25.27
2017-12-21T17:14:18.302Z,24.87
2017-12-21T17:16:46.493Z,25.43
2017-12-21T17:19:14.678Z,23.67
2017-12-21T17:21:42.846Z,22.97
2017-12-21T17:24:11.068Z,23.73
2017-12-21T17:26:39.259Z,24.00
2017-12-21T17:29:07.483Z,25.43
2017-12-21T17:31:35.674Z,25.10
2017-12-21T17:34:04.618Z,24.17
2017-12-21T17:36:32.883Z,22.90
2017-12-21T17:39:01.043Z,24.93
2017-12-21T17:41:29.233Z,24.70
2017-12-21T17:43:57.417Z,23.80
2017-12-21T17:46:25.588Z,23.53
2017-12-21T17:48:53.755Z,24.87
2017-12-21T17:51:21.920Z,22.13
2017-12-21T17:53:50.090Z,24.30
2017-12-21T17:56:18.255Z,24.53
2017-12-21T17:58:46.433Z,23.00
2017-12-21T18:01:14.594Z,23.80
2017-12-21T18:03:43.550Z,24.83
2017-12-21T18:06:11.726Z,26.60
2017-12-21T18:08:39.896Z,33.27
2017-12-21T18:11:08.063Z,42.13
2017-12-21T18:13:36.239Z,28.77
2017-12-21T18:16:04.411Z,29.90
2017-12-21T18:18:32.575Z,29.07
2017-12-21T18:21:01.723Z,28.80
2017-12-21T18:23:30.669Z,27.20
2017-12-21T18:25:58.847Z,28.70
2017-12-21T18:28:27.026Z,27.67
2017-12-21T18:30:55.194Z,28.13
2017-12-21T18:33:23.364Z,29.80
2017-12-21T18:35:52.298Z,29.17
2017-12-21T18:38:21.242Z,28.50
2017-12-21T18:40:49.436Z,29.67
2017-12-21T18:43:17.707Z,28.70
2017-12-21T18:45:45.961Z,28.93
2017-12-21T18:48:14.163Z,30.57
2017-12-21T18:50:42.412Z,30.13
2017-12-21T18:53:10.584Z,31.10
2017-12-21T18:55:38.767Z,32.93
2017-12-21T18:58:07.139Z,34.07
2017-12-21T19:00:35.522Z,29.20
2017-12-21T19:03:03.758Z,30.20
2017-12-21T19:05:32.705Z,28.57
2017-12-21T19:08:00.902Z,30.27
2017-12-21T19:10:29.081Z,28.00
2017-12-21T19:12:57.403Z,30.90
2017-12-21T19:15:25.575Z,32.83
2017-12-21T19:17:53.740Z,31.23
2017-12-21T19:20:22.761Z,30.67
2017-12-21T19:22:51.040Z,29.20
2017-12-21T19:25:19.238Z,30.60
2017-12-21T19:27:47.466Z,31.00
2017-12-21T19:30:15.640Z,29.73
2017-12-21T19:32:43.820Z,31.77
2017-12-21T19:35:11.991Z,33.40
2017-12-21T19:37:40.143Z,33.73
2017-12-21T19:40:09.095Z,37.60
2017-12-21T19:42:37.262Z,35.20
2017-12-21T19:45:05.437Z,34.97
2017-12-21T19:47:33.619Z,32.50
2017-12-21T19:50:01.791Z,32.70
2017-12-21T19:52:29.967Z,34.73
2017-12-21T19:54:58.140Z,34.67
2017-12-21T19:57:26.403Z,32.83
2017-12-21T19:59:54.570Z,33.03
2017-12-21T20:02:22.794Z,35.20
2017-12-21T20:04:50.960Z,33.50
2017-12-21T20:07:19.142Z,31.13
2017-12-21T20:09:47.306Z,35.10
2017-12-21T20:12:15.470Z,34.90
2017-12-21T20:14:43.668Z,33.40
2017-12-21T20:17:11.843Z,34.37
2017-12-21T20:19:40.015Z,42.77
2017-12-21T20:22:08.179Z,34.50
2017-12-21T20:24:36.495Z,30.80
2017-12-21T20:27:05.426Z,30.27
2017-12-21T20:29:33.639Z,34.53
2017-12-21T20:32:01.815Z,42.80
2017-12-21T20:34:29.992Z,34.07
2017-12-21T20:36:58.171Z,32.60
2017-12-21T20:39:27.122Z,32.37
2017-12-21T20:41:55.296Z,31.33
2017-12-21T20:44:23.472Z,30.43
2017-12-21T20:46:51.940Z,31.70
2017-12-21T20:49:20.108Z,28.70
2017-12-21T20:51:48.320Z,29.10
2017-12-21T20:54:16.485Z,29.47
2017-12-21T20:56:44.650Z,31.23
2017-12-21T20:59:12.866Z,31.47
2017-12-21T21:01:41.034Z,29.67
2017-12-21T21:04:09.211Z,28.70
2017-12-21T21:06:37.378Z,30.40
2017-12-21T21:09:05.558Z,28.80
2017-12-21T21:11:33.784Z,30.37
2017-12-21T21:14:02.002Z,30.00
2017-12-21T21:16:30.149Z,29.37
2017-12-21T21:18:58.342Z,29.30
2017-12-21T21:21:26.506Z,29.30
2017-12-21T21:23:54.694Z,29.43
2017-12-21T21:26:22.876Z,28.73
2017-12-21T21:28:51.090Z,30.30
2017-12-21T21:31:19.291Z,28.23
2017-12-21T21:33:47.558Z,30.17
2017-12-21T21:36:15.730Z,28.90
2017-12-21T21:38:43.897Z,29.40
2017-12-21T21:41:12.067Z,32.37
2017-12-21T21:43:40.239Z,52.03
2017-12-21T21:46:08.411Z,36.03
2017-12-21T21:48:36.618Z,43.17
2017-12-21T21:51:04.791Z,44.30
2017-12-21T21:53:32.976Z,31.37
2017-12-21T21:56:01.228Z,30.27
2017-12-21T21:58:29.464Z,30.13
2017-12-21T22:00:58.393Z,30.53
2017-12-21T22:03:26.561Z,31.60
2017-12-21T22:05:54.739Z,33.40
2017-12-21T22:08:22.926Z,33.97
2017-12-21T22:10:51.115Z,31.23
2017-12-21T22:13:19.294Z,31.60
2017-12-21T22:15:47.512Z,28.47
2017-12-21T22:18:16.454Z,28.33
2017-12-21T22:20:44.618Z,27.00
2017-12-21T22:23:12.778Z,28.50
2017-12-21T22:25:41.074Z,26.10
2017-12-21T22:28:09.379Z,27.00
2017-12-21T22:30:37.542Z,24.33
2017-12-21T22:33:06.479Z,26.40
2017-12-21T22:35:35.416Z,22.70
2017-12-21T22:38:03.591Z,23.40
2017-12-21T22:40:31.803Z,23.80
2017-12-21T22:43:00.043Z,25.50
2017-12-21T22:45:28.311Z,25.00
2017-12-21T22:47:56.487Z,27.50
2017-12-21T22:50:24.652Z,28.83
2017-12-21T22:52:52.818Z,27.60
2017-12-21T22:55:20.987Z,27.00
2017-12-21T22:57:49.181Z,24.07
2017-12-21T23:00:25.341Z,26.03
2017-12-21T23:02:53.528Z,24.10
2017-12-21T23:05:21.695Z,23.40
2017-12-21T23:07:49.854Z,23.90
2017-12-21T23:10:18.021Z,23.50
2017-12-21T23:12:46.186Z,21.70
2017-12-21T23:15:15.208Z,21.10
2017-12-21T23:17:43.362Z,20.37
2017-12-21T23:20:11.541Z,20.07
2017-12-21T23:22:39.703Z,16.60
2017-12-21T23:25:08.647Z,16.70
2017-12-21T23:27:36.814Z,16.73
2017-12-21T23:30:05.026Z,16.30
2017-12-21T23:32:33.198Z,17.60
2017-12-21T23:35:01.369Z,18.50
2017-12-21T23:37:29.532Z,17.67
2017-12-21T23:39:57.703Z,19.60
2017-12-21T23:42:25.892Z,19.10
2017-12-21T23:44:54.068Z,18.27
2017-12-21T23:47:22.235Z,18.03
2017-12-21T23:49:50.394Z,16.00
2017-12-21T23:52:18.559Z,16.00
2017-12-21T23:54:46.732Z,15.20
2017-12-21T23:57:14.904Z,15.37
2017-12-21T23:59:43.058Z,12.50
